Terminal Aerodrome Forecast
Issued by NWS

Home | Current Version | Previous Version | Graphics & Text | Print | Product List | Glossary Off
Versions: 1 2 3 4 5 6 7 8 9 10 11 12 13 14 15 16 17 18

000
FTUS43 KGRB 241500 AAA
TAFATW
TAF AMD
KATW 241521Z 2415/2512 23003KT 2SM BR OVC002
      TEMPO 2416/2418 4SM BR
     FM241800 22007KT P6SM BKN250
     FM250100 20005KT 6SM BR BKN050
     FM250800 26005KT 5SM BR SCT250=

USA.gov is the U.S. government's official web portal to all federal, state and local government web resources and services.